KEFD/EFD METAR and TAF weather

Enter ICAO airport designator
Station Type Date Time Source
KEFD METAR 2019/04/18 19:50 UTC NOAA

KEFD 181950Z 30013KT 10SM BKN030 23/18 A2972


Station Type Date Time Source
KEFD Decoded METAR 2019/04/18 19:50 UTC NOAA

Houston / Ellington, TX, United States (KEFD) 29-36N 095-10W
Apr 18, 2019 - 03:50 PM EDT / 2019.04.18 1950 UTC
Wind: from the WNW (300 degrees) at 15 MPH (13 KT):0
Visibility: 10 mile(s):0
Sky conditions: mostly cloudy
Temperature: 73 F (23 C)
Dew Point: 64 F (18 C)
Relative Humidity: 73%
Pressure (altimeter): 29.72 in. Hg (1006 hPa)
ob: KEFD 181950Z 30013KT 10SM BKN030 23/18 A2972
cycle: 20

Station Type Date Time Source
KEFD TAF 2019/04/18 20:10 UTC NOAA

TAF KEFD 182000Z 1820/2002 32009KT 9999 BKN030 QNH2963INS
BECMG 1821/1822 32015G25KT 9999 SCT040 QNH2965INS
BECMG 1822/1823 32025G35KT 9999 SCT060 510002 QNH2975INS
BECMG 1902/1903 31009KT 9999 SKC QNH2976INS
BECMG 1914/1915 32015G20KT 9999 SKC QNH2990INS
BECMG 1917/1918 32025G35KT 9999 SKC 510002 QNH2995INS
BECMG 2000/2001 33012KT 9999 SKC QNH2998INS TX27/1821Z TN14/1912Z

Example: see airport list